Time;durP1;ratioP1;P1;durP2;ratioP2;P2;SDS_P1;SDS_P2;PMS_P1;PMS_P2;Temp;Humidity;BMP_temperature;BMP_pressure;BME280_temperature;BME280_humidity;BME280_pressure;Samples;Min_cycle;Max_cycle;Signal;HPM_P1;HPM_P2
2022/12/22 03:26:40;;;;;;;12.35;5.85;;;;;;;2.92;76.94;101249.44;6299533;22;20055;-88
2022/12/22 03:29:56;;;;;;;9.63;5.63;;;;;;;2.99;76.64;101245.44;6235893;23;20020;-88
2022/12/22 03:33:03;;;;;;;10.45;6.30;;;;;;;2.91;75.90;101242.41;6235048;23;20009;-89
2022/12/22 03:36:11;;;;;;;11.77;6.20;;;;;;;2.91;76.12;101237.09;6227811;23;20022;-88
2022/12/22 03:39:21;;;;;;;11.45;6.18;;;;;;;3.13;75.82;101269.31;6235062;23;20008;-89
2022/12/22 03:47:53;;;;;;;10.23;5.50;;;;;;;3.29;74.81;101257.69;6237275;23;20043;-91
2022/12/22 03:50:26;;;;;;;9.88;4.65;;;;;;;3.14;75.25;101227.66;6235837;23;20081;-89
2022/12/22 03:53:04;;;;;;;9.88;5.43;;;;;;;3.20;75.19;101239.69;6233390;23;20047;-88
2022/12/22 03:55:49;;;;;;;;;;;;;;;3.38;75.15;101270.41;6210256;23;20012;-88
2022/12/22 03:59:00;;;;;;;11.40;6.07;;;;;;;3.14;74.95;101240.97;6236876;23;19927;-89
2022/12/22 04:02:03;;;;;;;17.52;7.68;;;;;;;3.06;74.57;101230.78;6233932;23;20012;-89
2022/12/22 04:04:57;;;;;;;27.25;12.18;;;;;;;3.22;75.51;101270.53;6232250;23;20043;-90
2022/12/22 04:07:44;;;;;;;24.75;10.80;;;;;;;3.01;75.01;101219.63;6237572;23;20039;-89
2022/12/22 04:59:54;;;;;;;22.40;12.63;;;;;;;2.29;77.56;101251.53;6277995;22;20043;-89
2022/12/22 05:02:28;;;;;;;21.15;10.88;;;;;;;2.25;77.38;101250.00;6257605;23;20031;-88
2022/12/22 05:04:55;;;;;;;23.38;13.23;;;;;;;2.38;77.38;101265.19;6230528;23;20023;-88
2022/12/22 05:07:25;;;;;;;24.13;14.05;;;;;;;2.19;77.29;101234.47;6233551;23;20313;-87
2022/12/22 05:10:00;;;;;;;31.85;14.60;;;;;;;2.33;76.86;101245.09;6261471;23;20008;-87
2022/12/22 05:12:55;;;;;;;30.17;15.10;;;;;;;2.32;76.88;101256.66;6231307;23;20081;-88
2022/12/22 05:15:28;;;;;;;31.02;15.07;;;;;;;2.16;77.19;101237.31;6229578;23;20371;-88
2022/12/22 05:17:55;;;;;;;34.92;17.25;;;;;;;2.12;77.53;101249.03;6202079;23;20028;-87
2022/12/22 05:20:22;;;;;;;30.92;15.38;;;;;;;2.27;77.15;101257.88;6254117;23;20083;-87
2022/12/22 05:23:03;;;;;;;36.00;15.77;;;;;;;2.16;77.45;101245.25;6201284;23;20087;-88
2022/12/22 05:25:31;;;;;;;27.50;15.60;;;;;;;2.40;77.37;101284.53;6234545;23;20008;-84
2022/12/22 05:34:11;;;;;;;29.53;14.63;;;;;;;2.36;76.79;101269.72;6291389;22;20045;-87
2022/12/22 05:42:36;;;;;;;22.53;10.43;;;;;;;2.48;77.32;101263.66;6322120;22;20110;-91
2022/12/22 05:45:42;;;;;;;42.97;14.73;;;;;;;2.60;76.51;101264.72;6330891;22;20019;-89
2022/12/22 05:48:46;;;;;;;29.27;13.45;;;;;;;2.68;76.32;101284.53;6323621;22;20011;-90
2022/12/22 06:01:59;;;;;;;49.25;16.80;;;;;;;2.65;75.41;101263.50;6334250;22;20025;-89
2022/12/22 06:04:52;;;;;;;24.17;12.02;;;;;;;2.64;75.92;101267.09;6277178;22;20019;-90
2022/12/22 06:15:52;;;;;;;40.53;16.60;;;;;;;3.11;74.71;101273.88;6323889;22;20019;-90
2022/12/22 06:18:43;;;;;;;27.85;11.55;;;;;;;3.19;74.30;101281.38;6261381;22;20140;-89
2022/12/22 06:35:17;;;;;;;33.47;13.20;;;;;;;3.98;72.07;101303.66;6324966;22;20015;-90
2022/12/22 06:38:45;;;;;;;26.95;13.23;;;;;;;4.07;71.67;101292.41;6328027;22;20088;-91
2022/12/22 06:44:42;;;;;;;23.80;10.50;;;;;;;4.26;70.84;101294.72;6333382;22;20093;-90
2022/12/22 07:13:19;;;;;;;31.10;10.93;;;;;;;5.25;67.13;101297.50;6324672;22;20083;-91
2022/12/22 08:08:10;;;;;;;8.45;5.47;;;;;;;24.58;21.08;101256.50;6288653;22;20085;-90
2022/12/22 08:10:41;;;;;;;16.48;6.82;;;;;;;25.42;21.01;101261.63;6295668;22;20074;-89
2022/12/22 08:13:56;;;;;;;10.10;5.90;;;;;;;26.24;19.69;101271.38;6243858;22;21467;-91
2022/12/22 08:20:07;;;;;;;19.38;7.25;;;;;;;28.21;18.11;101275.25;6294560;22;20003;-94
2022/12/22 08:38:30;;;;;;;13.85;5.90;;;;;;;28.79;16.87;101214.53;6324602;22;20022;-92
2022/12/22 09:21:53;;;;;;;11.43;7.95;;;;;;;28.02;18.78;101177.25;6257911;22;20020;-87
2022/12/22 09:24:19;;;;;;;14.05;6.95;;;;;;;27.46;18.93;101181.16;6217076;23;20012;-86
2022/12/22 09:26:46;;;;;;;11.93;6.90;;;;;;;26.32;19.63;101158.81;6224541;23;20008;-87
2022/12/22 09:29:14;;;;;;;15.75;9.05;;;;;;;28.01;18.77;101172.84;6224407;23;20018;-87
2022/12/22 09:31:49;;;;;;;16.65;9.07;;;;;;;28.37;18.11;101155.38;6205161;23;20019;-86
2022/12/22 09:34:15;;;;;;;;;;;;;;;28.38;18.01;101170.03;6226718;23;20446;-88
2022/12/22 09:36:52;;;;;;;15.65;8.90;;;;;;;28.82;17.72;101148.44;6228432;23;20200;-88
2022/12/22 09:42:51;;;;;;;14.32;9.23;;;;;;;30.19;16.19;101170.19;6265974;22;20030;-86
2022/12/22 09:45:59;;;;;;;21.65;10.00;;;;;;;31.33;15.49;101167.53;6199472;23;20035;-88
2022/12/22 09:48:34;;;;;;;19.42;8.85;;;;;;;32.01;15.08;101154.81;6230554;23;20000;-89
2022/12/22 09:51:10;;;;;;;18.80;10.65;;;;;;;32.87;14.12;101160.47;6235144;23;20011;-88
2022/12/22 09:54:10;;;;;;;10.45;8.15;;;;;;;33.03;14.08;101158.31;6202158;23;20019;-86
2022/12/22 09:56:47;;;;;;;13.90;7.70;;;;;;;33.23;13.65;101151.66;6234477;23;20028;-85
2022/12/22 09:59:15;;;;;;;14.77;9.25;;;;;;;33.32;13.73;101149.84;6230189;23;20008;-88
2022/12/22 10:02:00;;;;;;;17.15;9.38;;;;;;;32.84;14.16;101152.75;6233352;23;20020;-87
2022/12/22 10:04:47;;;;;;;21.42;9.77;;;;;;;33.60;13.33;101117.38;6257640;23;20011;-87
2022/12/22 10:07:31;;;;;;;12.70;7.90;;;;;;;32.65;13.94;101136.00;6261713;23;20022;-89
2022/12/22 10:13:36;;;;;;;11.57;6.55;;;;;;;33.52;13.35;101129.19;6264251;23;20230;-89
2022/12/22 10:16:32;;;;;;;16.58;7.03;;;;;;;33.34;13.25;101124.47;6233092;23;20030;-88
2022/12/22 10:19:14;;;;;;;11.65;6.50;;;;;;;32.38;13.61;101090.13;6255594;23;20072;-87
2022/12/22 10:21:46;;;;;;;11.80;7.60;;;;;;;32.16;14.04;101124.03;6226793;23;20084;-88
2022/12/22 10:27:47;;;;;;;13.30;8.73;;;;;;;32.48;13.75;101080.81;6263096;23;20027;-88
2022/12/22 10:33:38;;;;;;;15.67;8.00;;;;;;;33.41;13.36;101086.75;6263380;23;20031;-86
2022/12/22 10:36:06;;;;;;;18.42;7.00;;;;;;;32.73;13.87;101088.03;6202680;23;20036;-88
2022/12/22 10:45:19;;;;;;;8.52;5.80;;;;;;;27.64;17.87;101071.44;6262627;23;20007;-86
2022/12/22 10:55:44;;;;;;;9.65;6.60;;;;;;;27.97;17.95;101070.28;6201110;23;20108;-88
2022/12/22 11:01:40;;;;;;;8.65;6.32;;;;;;;27.24;19.46;101023.09;6141919;23;20021;-88
2022/12/22 11:07:32;;;;;;;8.10;5.13;;;;;;;26.48;21.30;101065.25;6111062;23;20070;-88
2022/12/22 11:10:13;;;;;;;7.40;4.78;;;;;;;26.96;20.93;101063.63;6068925;23;20098;-86
2022/12/22 11:16:27;;;;;;;7.05;4.40;;;;;;;26.09;21.57;101068.09;6111359;23;20062;-87
2022/12/22 11:18:55;;;;;;;5.35;4.15;;;;;;;25.15;22.54;101050.34;6079303;23;20094;-86
2022/12/22 11:35:15;;;;;;;7.93;4.68;;;;;;;22.96;25.93;101006.81;6292943;22;20037;-85
2022/12/22 11:41:47;;;;;;;9.30;4.03;;;;;;;21.23;29.04;101046.25;6312626;22;20002;-86
2022/12/22 11:48:07;;;;;;;5.80;3.53;;;;;;;20.79;29.72;100998.81;6315854;22;20034;-85
2022/12/22 11:51:09;;;;;;;8.98;3.83;;;;;;;22.13;28.45;101022.03;6289270;22;20003;-86
2022/12/22 11:57:28;;;;;;;8.02;3.83;;;;;;;19.92;32.12;101012.84;6312264;22;20076;-84
2022/12/22 12:00:15;;;;;;;6.78;4.25;;;;;;;20.13;32.26;101014.47;6185621;23;20016;-85
2022/12/22 12:03:19;;;;;;;9.13;4.13;;;;;;;19.50;33.38;101028.66;6282614;22;20003;-85
2022/12/22 12:06:28;;;;;;;8.95;3.90;;;;;;;18.84;34.73;100994.00;6294871;22;20014;-83
2022/12/22 12:09:18;;;;;;;9.05;4.30;;;;;;;18.61;35.63;100986.19;6202362;23;20457;-83
2022/12/22 12:12:02;;;;;;;7.30;4.20;;;;;;;18.00;37.36;101018.81;6297644;22;20007;-85
2022/12/22 12:15:05;;;;;;;10.65;4.80;;;;;;;18.12;37.00;101000.88;6313739;22;20096;-84
2022/12/22 12:17:40;;;;;;;6.28;4.28;;;;;;;17.43;38.83;101024.28;6280266;22;20041;-85
2022/12/22 12:20:24;;;;;;;7.00;3.40;;;;;;;16.36;41.05;101021.50;6283984;22;20002;-84
2022/12/22 12:22:54;;;;;;;7.95;3.58;;;;;;;16.07;41.79;101019.69;6310952;22;20052;-84
2022/12/22 12:25:52;;;;;;;8.45;4.10;;;;;;;15.71;42.76;101021.28;6305766;22;20157;-83
2022/12/22 12:28:48;;;;;;;10.35;3.42;;;;;;;15.20;43.83;101029.19;6279381;22;20144;-86
2022/12/22 12:31:14;;;;;;;9.02;4.03;;;;;;;14.72;44.78;100987.94;6281134;22;20471;-86
2022/12/22 12:33:53;;;;;;;;;;;;;;;15.16;44.93;101022.44;6255618;22;19995;-84
2022/12/22 12:36:40;;;;;;;8.43;3.90;;;;;;;15.13;45.31;101022.81;6254819;22;19906;-86
2022/12/22 12:39:33;;;;;;;7.90;3.80;;;;;;;14.84;45.73;101024.38;6310213;22;20021;-85
2022/12/22 12:42:20;;;;;;;6.55;3.70;;;;;;;13.83;48.46;101028.72;6286595;22;20133;-85
2022/12/22 12:44:51;;;;;;;7.43;4.10;;;;;;;13.42;49.61;101007.22;6311222;22;20011;-85
2022/12/22 12:47:23;;;;;;;9.35;4.47;;;;;;;14.13;47.92;101013.59;6262907;22;20353;-85
2022/12/22 12:50:21;;;;;;;7.65;4.05;;;;;;;14.18;46.86;101009.53;6266318;22;19999;-85
2022/12/22 12:52:47;;;;;;;11.02;4.47;;;;;;;13.47;49.31;101025.63;6297354;22;20003;-86
2022/12/22 12:55:22;;;;;;;;;;;;;;;13.40;49.32;101024.63;6293562;22;20412;-84
2022/12/22 12:57:49;;;;;;;11.63;4.07;;;;;;;12.95;49.66;100994.41;6281970;22;20006;-84
2022/12/22 13:00:42;;;;;;;8.55;3.97;;;;;;;12.96;50.43;100993.38;6259248;22;20011;-84
2022/12/22 13:03:08;;;;;;;10.88;4.38;;;;;;;12.89;51.17;101027.44;6249676;22;20004;-86
2022/12/22 13:05:47;;;;;;;8.13;4.03;;;;;;;12.52;52.29;101014.41;6255274;22;20017;-85
2022/12/22 13:08:32;;;;;;;8.00;3.92;;;;;;;12.17;53.77;101027.09;6258496;22;20041;-85
2022/12/22 13:10:58;;;;;;;8.07;4.32;;;;;;;11.83;55.09;101027.91;6300112;22;20026;-85
2022/12/22 13:13:27;;;;;;;6.28;4.05;;;;;;;11.70;55.48;101036.41;6321638;22;20015;-84
2022/12/22 13:19:22;;;;;;;11.32;4.53;;;;;;;11.04;57.81;101029.72;6307923;22;20356;-85
2022/12/22 13:25:16;;;;;;;14.55;5.72;;;;;;;10.99;57.45;101021.28;6306763;22;20006;-86
2022/12/22 13:28:01;;;;;;;16.73;6.57;;;;;;;10.87;58.13;101027.88;6271161;22;19998;-84
2022/12/22 13:31:07;;;;;;;13.82;6.05;;;;;;;10.82;58.50;101024.81;6294479;22;20003;-85
2022/12/22 14:27:00;;;;;;;11.18;6.80;;;;;;;8.91;67.38;101020.72;6272635;22;20026;-85
2022/12/22 14:33:18;;;;;;;12.75;6.35;;;;;;;8.81;67.91;101015.38;6253313;23;20035;-84
2022/12/22 14:39:20;;;;;;;14.82;6.57;;;;;;;8.53;68.42;100985.72;6249271;23;20046;-84
2022/12/22 14:41:56;;;;;;;13.60;7.05;;;;;;;8.66;68.60;101012.22;6249328;23;20012;-83
2022/12/22 14:44:23;;;;;;;16.08;7.90;;;;;;;8.62;69.04;101017.03;6200217;23;20298;-83
2022/12/22 14:47:28;;;;;;;16.70;8.32;;;;;;;8.56;69.17;101014.06;6219713;23;20417;-84
2022/12/22 14:50:35;;;;;;;27.88;9.25;;;;;;;8.46;69.51;101014.06;6246066;23;20123;-83
2022/12/22 14:56:29;;;;;;;21.58;8.05;;;;;;;8.31;70.12;100992.16;6247975;23;20060;-87
2022/12/22 14:59:12;;;;;;;15.77;6.70;;;;;;;8.28;70.01;101003.13;6252648;23;20003;-84
2022/12/22 15:05:25;;;;;;;19.05;10.82;;;;;;;8.16;70.61;100989.00;6249871;23;20029;-85
2022/12/22 15:07:58;;;;;;;23.08;11.85;;;;;;;8.13;71.20;100993.78;6246884;23;20012;-84
2022/12/22 15:13:57;;;;;;;24.45;11.00;;;;;;;8.12;71.21;100998.28;6255084;23;20336;-84
2022/12/22 15:20:00;;;;;;;15.57;8.30;;;;;;;7.93;72.01;101000.91;6247239;23;20050;-84
2022/12/22 15:25:52;;;;;;;24.10;10.18;;;;;;;7.95;71.46;101007.81;6256556;23;20042;-85
2022/12/22 15:28:19;;;;;;;14.85;9.30;;;;;;;7.91;71.63;101010.91;6281971;22;20023;-82
2022/12/22 15:40:24;;;;;;;15.70;8.13;;;;;;;7.69;72.04;101020.81;6280486;22;20057;-83
2022/12/22 15:42:58;;;;;;;16.20;8.95;;;;;;;7.50;72.71;101020.72;6211266;22;20008;-83
2022/12/22 15:45:24;;;;;;;25.33;10.27;;;;;;;7.54;72.54;101014.13;6242125;22;20004;-81
2022/12/22 15:47:53;;;;;;;16.42;10.68;;;;;;;7.59;72.53;101022.59;6226733;22;20447;-83
2022/12/22 15:50:40;;;;;;;27.85;12.18;;;;;;;7.63;72.19;101018.66;6244467;22;20102;-84
2022/12/22 15:53:13;;;;;;;22.30;12.88;;;;;;;7.52;72.25;101016.09;6259009;22;20003;-83
2022/12/22 15:56:12;;;;;;;16.27;9.05;;;;;;;7.60;72.02;101013.59;6224654;22;20015;-84
2022/12/22 16:02:07;;;;;;;23.42;13.00;;;;;;;7.34;72.15;101003.31;6280330;22;20035;-83
2022/12/22 16:04:35;;;;;;;21.10;11.70;;;;;;;7.35;72.31;101007.69;6253351;22;20491;-85
2022/12/22 16:07:02;;;;;;;20.88;10.45;;;;;;;7.40;72.70;101029.53;6224254;22;20369;-85
2022/12/22 16:09:36;;;;;;;27.95;14.00;;;;;;;7.39;72.55;101016.28;6252489;22;20077;-84
2022/12/22 16:12:08;;;;;;;32.63;13.10;;;;;;;7.27;72.48;101004.81;6229076;22;20071;-86
2022/12/22 16:14:44;;;;;;;23.45;12.00;;;;;;;7.45;71.98;101021.13;6226164;22;20042;-84
2022/12/22 16:17:21;;;;;;;22.95;11.93;;;;;;;7.22;72.03;100999.00;6252006;22;20011;-85
2022/12/22 16:20:05;;;;;;;32.55;14.45;;;;;;;7.25;73.26;101027.31;6279491;22;20004;-86
2022/12/22 16:22:35;;;;;;;29.75;12.70;;;;;;;7.34;72.53;101030.06;6252719;22;20012;-85
2022/12/22 16:25:06;;;;;;;31.92;15.23;;;;;;;7.28;72.57;101027.91;6257518;22;20008;-83
2022/12/22 19:22:02;;;;;;;67.10;34.10;;;;;;;4.34;75.03;100986.22;6272673;22;20032;-85
2022/12/22 19:24:29;;;;;;;70.40;32.00;;;;;;;4.42;74.88;101004.28;6282483;22;20152;-83
2022/12/22 19:26:57;;;;;;;66.93;31.63;;;;;;;4.38;74.88;100998.34;6233882;22;20011;-83
2022/12/22 19:29:29;;;;;;;59.70;31.05;;;;;;;4.37;74.67;100991.31;6312471;22;20027;-84
2022/12/22 19:31:55;;;;;;;59.20;29.80;;;;;;;4.11;75.01;100953.28;6286415;22;20015;-83
2022/12/22 19:34:25;;;;;;;54.47;29.77;;;;;;;4.32;74.73;100987.28;6271343;22;20039;-88
2022/12/22 19:37:24;;;;;;;61.83;31.17;;;;;;;4.23;75.47;100967.50;6266002;23;20227;-90
2022/12/22 21:32:05;;;;;;;121.80;54.65;;;;;;;3.11;79.90;100952.41;6315458;22;20480;-88
2022/12/22 21:35:00;;;;;;;115.55;54.53;;;;;;;3.08;79.91;100949.94;6314666;22;20015;-90
2022/12/22 21:37:34;;;;;;;113.63;54.00;;;;;;;2.91;79.90;100929.84;6295963;22;20029;-89
2022/12/22 21:40:31;;;;;;;129.48;54.50;;;;;;;3.01;80.64;100953.97;6278164;22;20098;-90
2022/12/22 23:12:44;;;;;;;83.25;37.78;;;;;;;2.24;81.90;100914.00;6328288;22;20023;-88
2022/12/22 23:19:00;;;;;;;75.85;38.85;;;;;;;2.02;81.19;100856.22;6333704;22;20046;-90
2022/12/22 23:22:28;;;;;;;77.75;38.05;;;;;;;2.33;81.31;100916.03;6329067;22;20023;-89
